Time;durP1;ratioP1;P1;durP2;ratioP2;P2;SDS_P1;SDS_P2;PMS_P1;PMS_P2;Temp;Humidity;BMP_temperature;BMP_pressure;BME280_temperature;BME280_humidity;BME280_pressure;Samples;Min_cycle;Max_cycle;Signal;HPM_P1;HPM_P2
2024/01/18 00:00:13;;;;;;;18.90;11.00;;;;;;;1.19;91.90;99280.16;5032817;28;20040;-85
2024/01/18 00:02:39;;;;;;;20.45;11.10;;;;;;;1.16;91.58;99262.75;4999176;28;20056;-85
2024/01/18 00:05:06;;;;;;;22.40;11.63;;;;;;;1.27;91.93;99267.31;5033314;28;20111;-85
2024/01/18 00:07:31;;;;;;;22.27;11.85;;;;;;;1.21;91.87;99265.47;5032712;28;20036;-84
2024/01/18 00:09:57;;;;;;;20.25;11.15;;;;;;;1.32;92.15;99284.78;5032723;28;20072;-85
2024/01/18 00:12:22;;;;;;;21.25;11.40;;;;;;;1.34;91.29;99287.44;5031410;28;20477;-84
2024/01/18 00:14:47;;;;;;;17.88;10.90;;;;;;;1.16;91.33;99260.16;5032787;28;20033;-85
2024/01/18 00:17:13;;;;;;;17.70;11.20;;;;;;;1.19;91.61;99280.16;5031894;28;20463;-84
2024/01/18 00:19:38;;;;;;;20.42;11.07;;;;;;;1.23;91.52;99295.88;5032635;28;20040;-85
2024/01/18 00:22:03;;;;;;;23.08;11.50;;;;;;;1.20;92.29;99292.31;5033374;28;20458;-85
2024/01/18 00:24:29;;;;;;;19.02;10.73;;;;;;;1.27;92.29;99301.16;5031134;28;20124;-85
2024/01/18 00:26:54;;;;;;;18.02;11.02;;;;;;;1.26;91.84;99310.69;5032337;28;20449;-84
2024/01/18 00:29:19;;;;;;;19.00;11.65;;;;;;;1.24;92.45;99302.84;5031728;28;20035;-85
2024/01/18 00:31:45;;;;;;;22.27;10.80;;;;;;;1.08;92.56;99269.50;5034379;28;20045;-85
2024/01/18 00:34:11;;;;;;;17.60;11.50;;;;;;;1.32;91.83;99308.19;5037053;28;20490;-85
2024/01/18 00:36:36;;;;;;;23.85;11.63;;;;;;;1.31;91.83;99302.97;5019499;28;20041;-85
2024/01/18 00:39:08;;;;;;;22.50;11.23;;;;;;;0.98;91.92;99249.31;5036721;28;20186;-85
2024/01/18 00:41:38;;;;;;;21.00;12.02;;;;;;;1.31;91.71;99314.25;5034731;28;20041;-85
2024/01/18 00:44:04;;;;;;;18.92;10.95;;;;;;;1.28;92.36;99308.09;5036256;28;20079;-85
2024/01/18 00:46:30;;;;;;;18.90;11.10;;;;;;;0.99;92.08;99256.31;5036015;28;20033;-85
2024/01/18 00:48:55;;;;;;;18.92;11.50;;;;;;;1.26;92.15;99308.06;5035406;28;20029;-85
2024/01/18 00:51:20;;;;;;;17.10;11.43;;;;;;;1.32;91.98;99325.53;5018639;28;20060;-85
2024/01/18 00:53:46;;;;;;;20.88;11.05;;;;;;;1.03;92.10;99276.34;5034452;28;20058;-85
2024/01/18 00:56:12;;;;;;;21.15;12.10;;;;;;;1.32;92.16;99317.72;5018560;28;20049;-85
2024/01/18 00:58:38;;;;;;;20.92;11.48;;;;;;;1.29;92.22;99333.31;5035988;28;20464;-85
2024/01/18 01:01:03;;;;;;;20.85;11.90;;;;;;;1.28;92.05;99336.72;5034967;28;20041;-85
2024/01/18 01:03:28;;;;;;;21.20;11.73;;;;;;;1.30;92.54;99335.06;5034763;28;20509;-85
2024/01/18 01:05:54;;;;;;;22.35;11.57;;;;;;;1.17;92.26;99324.34;5034473;28;20470;-85
2024/01/18 01:08:19;;;;;;;19.85;11.10;;;;;;;1.04;92.46;99303.22;5034176;28;20398;-85
2024/01/18 01:10:44;;;;;;;23.45;11.82;;;;;;;1.24;92.59;99344.47;5017945;28;20033;-85
2024/01/18 01:13:10;;;;;;;19.45;11.15;;;;;;;1.19;92.51;99334.78;5036033;28;20458;-85
2024/01/18 01:15:35;;;;;;;19.58;11.32;;;;;;;1.14;92.68;99337.28;5034625;28;20513;-85
2024/01/18 01:18:00;;;;;;;22.13;11.63;;;;;;;1.23;92.73;99358.31;5034978;28;20482;-86
2024/01/18 01:20:26;;;;;;;19.70;11.30;;;;;;;1.18;92.22;99349.50;5018545;28;20060;-85
2024/01/18 01:22:51;;;;;;;19.92;11.52;;;;;;;1.18;92.29;99346.03;5035185;28;20068;-85
2024/01/18 01:25:17;;;;;;;18.35;11.38;;;;;;;1.04;92.72;99330.09;5035043;28;20385;-85
2024/01/18 01:27:42;;;;;;;18.77;11.05;;;;;;;1.12;93.09;99357.19;5036279;28;20493;-85
2024/01/18 01:30:10;;;;;;;17.75;11.13;;;;;;;1.16;93.69;99356.41;5018240;28;20038;-85
2024/01/18 01:32:35;;;;;;;19.17;11.38;;;;;;;1.09;93.37;99338.88;5036239;28;20033;-85
2024/01/18 01:35:01;;;;;;;21.58;11.48;;;;;;;1.26;93.24;99360.13;5036077;28;20040;-85
2024/01/18 01:37:26;;;;;;;20.95;11.40;;;;;;;1.18;92.09;99341.72;5018242;28;20042;-85
2024/01/18 01:39:51;;;;;;;20.23;12.13;;;;;;;1.26;92.65;99370.53;5034747;28;20520;-85
2024/01/18 01:42:17;;;;;;;19.58;11.75;;;;;;;1.10;92.67;99352.78;5033901;28;20129;-86
2024/01/18 01:44:42;;;;;;;21.23;11.50;;;;;;;1.11;92.41;99363.19;5033668;28;20470;-85
2024/01/18 01:47:08;;;;;;;17.77;11.00;;;;;;;1.13;92.48;99377.16;5034631;28;20064;-85
2024/01/18 01:49:33;;;;;;;21.73;11.38;;;;;;;1.16;92.51;99377.22;5034438;28;20095;-85
2024/01/18 01:52:00;;;;;;;20.88;11.75;;;;;;;0.87;92.65;99323.63;5035420;28;20387;-86
2024/01/18 01:54:29;;;;;;;18.92;11.20;;;;;;;0.91;92.30;99328.06;5034080;28;20058;-86
2024/01/18 01:56:57;;;;;;;20.27;11.35;;;;;;;1.17;92.28;99383.31;5034705;28;20041;-85
2024/01/18 01:59:23;;;;;;;19.33;11.20;;;;;;;0.97;92.93;99354.19;5035623;28;20033;-85
2024/01/18 02:01:50;;;;;;;19.88;11.30;;;;;;;1.02;92.90;99362.97;5035075;28;20387;-85
2024/01/18 02:04:16;;;;;;;18.25;11.45;;;;;;;0.98;92.24;99362.03;5035396;28;20037;-85
2024/01/18 02:06:42;;;;;;;20.05;11.38;;;;;;;1.10;92.81;99374.47;5035297;28;20038;-85
2024/01/18 02:09:10;;;;;;;19.98;11.50;;;;;;;1.11;92.56;99381.41;5034196;28;20029;-86
2024/01/18 02:11:36;;;;;;;20.58;11.20;;;;;;;1.07;92.57;99376.09;5035010;28;20250;-85
2024/01/18 02:14:03;;;;;;;20.52;11.68;;;;;;;0.93;92.56;99354.94;5033608;28;20417;-85
2024/01/18 02:16:28;;;;;;;17.17;11.07;;;;;;;1.04;93.00;99382.13;5034747;28;20155;-85
2024/01/18 02:18:54;;;;;;;21.48;11.95;;;;;;;1.05;93.20;99386.47;5033724;28;20068;-86
2024/01/18 02:21:19;;;;;;;17.33;11.20;;;;;;;1.07;93.30;99394.31;5033130;28;20033;-86
2024/01/18 02:23:48;;;;;;;21.88;11.48;;;;;;;1.02;93.49;99370.78;5033511;28;20034;-86
2024/01/18 02:26:13;;;;;;;19.42;11.38;;;;;;;1.08;93.31;99385.69;5033066;28;20418;-86
2024/01/18 02:28:53;;;;;;;19.08;11.55;;;;;;;1.13;92.90;99387.56;5033040;28;20064;-85
2024/01/18 02:31:18;;;;;;;22.20;11.27;;;;;;;0.88;92.81;99341.84;5033304;28;20036;-86
2024/01/18 02:33:44;;;;;;;19.50;11.05;;;;;;;1.09;93.03;99380.50;5033232;28;20068;-86
2024/01/18 02:36:09;;;;;;;21.13;11.00;;;;;;;1.04;93.40;99373.44;5016707;28;20045;-85
2024/01/18 02:38:34;;;;;;;21.15;11.07;;;;;;;1.00;93.05;99383.75;5034252;28;20152;-85
2024/01/18 02:41:00;;;;;;;20.02;11.30;;;;;;;0.84;93.29;99360.81;5034456;28;20040;-85
2024/01/18 02:43:25;;;;;;;24.75;11.57;;;;;;;0.99;93.39;99392.41;5034008;28;20382;-85
2024/01/18 02:45:51;;;;;;;18.45;10.93;;;;;;;0.88;93.63;99380.84;5032692;28;20136;-86
2024/01/18 02:48:16;;;;;;;20.23;11.73;;;;;;;0.93;93.51;99388.75;5016366;28;20057;-85
2024/01/18 02:50:41;;;;;;;18.35;11.32;;;;;;;0.94;93.56;99399.22;5016389;28;20069;-86
2024/01/18 02:53:07;;;;;;;18.40;11.07;;;;;;;0.87;94.15;99386.00;5016045;28;20398;-85
2024/01/18 02:55:32;;;;;;;16.13;10.93;;;;;;;0.91;94.21;99386.13;5015986;28;20137;-85
2024/01/18 02:57:58;;;;;;;21.00;11.40;;;;;;;0.97;93.83;99399.28;5032555;28;20116;-85
2024/01/18 03:00:23;;;;;;;20.00;11.23;;;;;;;0.87;93.98;99386.00;5033847;28;20394;-85
2024/01/18 03:02:49;;;;;;;18.58;11.73;;;;;;;0.72;94.35;99363.97;5032531;28;20044;-86
2024/01/18 03:05:14;;;;;;;19.70;11.02;;;;;;;1.01;93.81;99408.03;5032868;28;20034;-86
2024/01/18 03:07:40;;;;;;;20.25;11.30;;;;;;;1.00;93.83;99407.16;5016042;28;20084;-85
2024/01/18 03:10:05;;;;;;;20.50;11.35;;;;;;;1.01;93.58;99408.03;5032706;28;20432;-86
2024/01/18 03:12:34;;;;;;;17.77;11.15;;;;;;;0.89;93.51;99402.53;4999066;28;20037;-85
2024/01/18 03:15:00;;;;;;;22.80;11.80;;;;;;;0.86;93.91;99403.34;5032297;28;20438;-86
2024/01/18 03:17:25;;;;;;;20.52;11.57;;;;;;;0.71;94.43;99379.53;5015888;28;20163;-85
2024/01/18 03:19:50;;;;;;;18.10;11.30;;;;;;;0.86;93.78;99405.94;5033586;28;20029;-86
2024/01/18 03:22:16;;;;;;;17.85;11.38;;;;;;;0.79;94.26;99395.34;4999327;28;20130;-86
2024/01/18 03:24:41;;;;;;;16.75;10.98;;;;;;;0.72;94.76;99392.56;5033745;28;20458;-85
2024/01/18 03:27:09;;;;;;;18.27;11.10;;;;;;;0.78;94.56;99406.59;5015820;28;20044;-85
2024/01/18 03:29:37;;;;;;;18.95;11.60;;;;;;;0.81;94.24;99419.63;5032185;28;20037;-85
2024/01/18 03:32:03;;;;;;;19.83;11.23;;;;;;;0.82;95.35;99422.31;5033329;28;20037;-85
2024/01/18 03:34:28;;;;;;;20.90;11.27;;;;;;;0.79;95.02;99416.13;5015617;28;20036;-85
2024/01/18 03:36:54;;;;;;;23.38;11.68;;;;;;;0.67;94.99;99394.16;5015517;28;20466;-85
2024/01/18 03:39:19;;;;;;;20.40;11.57;;;;;;;0.79;95.15;99413.53;5031967;28;20425;-85
2024/01/18 03:41:44;;;;;;;18.35;10.95;;;;;;;0.67;95.05;99396.75;5031879;28;20041;-85
2024/01/18 03:44:10;;;;;;;17.63;11.00;;;;;;;0.62;95.16;99387.97;5031523;28;20052;-85
2024/01/18 03:46:35;;;;;;;16.42;10.85;;;;;;;0.84;94.83;99427.53;5031767;28;20034;-85
2024/01/18 03:49:00;;;;;;;19.67;11.25;;;;;;;0.78;94.72;99436.06;5033105;28;20389;-85
2024/01/18 03:51:26;;;;;;;23.08;11.40;;;;;;;0.75;94.88;99434.25;5032242;28;20116;-85
2024/01/18 03:53:51;;;;;;;19.52;11.48;;;;;;;0.68;94.89;99419.31;5044017;28;20459;-85
2024/01/18 03:56:16;;;;;;;20.85;12.07;;;;;;;0.61;95.57;99420.00;5052767;28;20048;-85
2024/01/18 03:58:43;;;;;;;17.83;11.30;;;;;;;0.76;95.56;99437.72;5034883;28;20503;-85
2024/01/18 04:01:08;;;;;;;18.98;11.38;;;;;;;0.69;95.48;99441.00;5053137;28;20037;-85
2024/01/18 04:03:33;;;;;;;18.75;11.63;;;;;;;0.75;95.22;99443.75;5018770;28;20033;-85
2024/01/18 04:05:59;;;;;;;21.23;10.93;;;;;;;0.46;95.36;99397.06;5034785;28;20037;-85
2024/01/18 04:08:24;;;;;;;16.52;10.52;;;;;;;0.60;95.30;99439.03;5056697;28;20398;-85
2024/01/18 04:10:50;;;;;;;18.45;10.88;;;;;;;0.52;95.55;99430.16;5056914;28;20107;-86
2024/01/18 04:13:15;;;;;;;19.20;11.25;;;;;;;0.62;95.90;99446.88;5056803;28;20052;-85
2024/01/18 04:15:40;;;;;;;18.13;11.18;;;;;;;0.60;95.90;99444.25;5022570;28;20036;-85
2024/01/18 04:18:06;;;;;;;20.63;10.18;;;;;;;0.62;95.56;99449.47;5022474;28;20033;-85
2024/01/18 04:20:32;;;;;;;19.77;10.68;;;;;;;0.57;95.71;99446.75;5056852;28;20032;-85
2024/01/18 04:22:58;;;;;;;19.98;10.48;;;;;;;0.43;95.80;99443.75;5038722;28;20028;-85
2024/01/18 04:25:23;;;;;;;20.38;11.73;;;;;;;0.48;95.44;99456.88;5038357;28;20401;-85
2024/01/18 04:27:49;;;;;;;19.42;10.80;;;;;;;0.31;95.52;99437.34;5038838;28;20037;-85
2024/01/18 04:30:14;;;;;;;16.42;10.25;;;;;;;0.34;96.09;99450.38;5038828;28;20029;-86
2024/01/18 04:32:40;;;;;;;16.83;10.60;;;;;;;0.41;96.02;99452.34;5038757;28;20041;-85
2024/01/18 04:35:08;;;;;;;18.88;10.00;;;;;;;0.34;96.16;99450.38;5038747;28;20039;-85
2024/01/18 04:37:33;;;;;;;16.70;9.88;;;;;;;0.16;95.75;99428.22;5022380;28;20068;-85
2024/01/18 04:39:59;;;;;;;19.05;10.05;;;;;;;0.25;95.69;99454.47;5038511;28;20063;-85
2024/01/18 04:42:24;;;;;;;18.13;10.07;;;;;;;0.26;96.27;99455.38;5038558;28;20033;-86
2024/01/18 04:44:49;;;;;;;17.23;9.80;;;;;;;0.19;95.53;99450.84;5022034;28;20095;-85
2024/01/18 04:47:15;;;;;;;16.85;9.88;;;;;;;0.27;95.56;99462.34;5021728;28;20044;-85
2024/01/18 04:49:40;;;;;;;15.60;9.68;;;;;;;0.27;95.81;99477.91;5021823;28;20029;-85
2024/01/18 04:52:05;;;;;;;19.27;8.68;;;;;;;0.25;95.52;99479.56;5038207;28;20493;-85
2024/01/18 04:54:32;;;;;;;16.00;9.65;;;;;;;0.15;95.15;99495.72;5038006;28;20057;-85
2024/01/18 04:56:58;;;;;;;17.05;9.20;;;;;;;0.15;95.73;99494.00;5038083;28;20547;-85
2024/01/18 04:59:27;;;;;;;15.10;9.40;;;;;;;0.07;95.43;99500.69;5038309;28;20033;-85
2024/01/18 05:01:53;;;;;;;21.83;9.55;;;;;;;-0.04;95.31;99489.97;5038026;28;20044;-85
2024/01/18 05:04:19;;;;;;;18.52;9.23;;;;;;;0.02;95.48;99499.66;5038218;28;20033;-85
2024/01/18 05:06:45;;;;;;;16.08;9.20;;;;;;;0.03;95.54;99498.81;5055793;28;20029;-85
2024/01/18 05:09:10;;;;;;;17.27;9.10;;;;;;;0.13;95.49;99519.06;5055645;28;20102;-85
2024/01/18 05:11:35;;;;;;;16.25;8.88;;;;;;;0.08;94.71;99518.03;5038469;28;20381;-85
2024/01/18 05:14:01;;;;;;;18.48;9.07;;;;;;;0.02;95.08;99511.78;5038135;28;20037;-85
2024/01/18 05:16:26;;;;;;;16.08;9.25;;;;;;;0.03;94.66;99517.00;5037751;28;20170;-85
2024/01/18 05:18:52;;;;;;;15.30;9.27;;;;;;;-0.03;95.04;99520.31;5037700;28;20157;-85
2024/01/18 05:21:17;;;;;;;17.10;8.85;;;;;;;-0.05;95.43;99518.47;5037621;28;20040;-85
2024/01/18 05:23:43;;;;;;;15.65;9.07;;;;;;;-0.08;95.21;99518.41;5055581;28;20119;-85
2024/01/18 05:26:09;;;;;;;16.50;8.65;;;;;;;-0.27;95.09;99507.41;5004949;28;20033;-85
2024/01/18 05:28:35;;;;;;;16.25;8.85;;;;;;;-0.11;95.17;99528.69;5055795;28;20060;-85
2024/01/18 05:31:00;;;;;;;16.63;9.70;;;;;;;-0.11;94.60;99534.75;5037692;28;20204;-85
2024/01/18 05:33:27;;;;;;;16.95;8.95;;;;;;;-0.21;94.41;99524.00;5037397;28;20116;-85
2024/01/18 05:35:52;;;;;;;16.67;9.25;;;;;;;-0.24;94.63;99536.91;5037505;28;20032;-86
2024/01/18 05:38:18;;;;;;;17.75;9.52;;;;;;;-0.33;94.28;99540.97;5055339;28;20055;-85
2024/01/18 05:40:45;;;;;;;17.55;9.77;;;;;;;-0.42;94.72;99532.00;5037476;28;20389;-85
2024/01/18 05:43:10;;;;;;;19.02;8.95;;;;;;;-0.45;94.90;99543.16;5037900;28;20477;-85
2024/01/18 05:45:36;;;;;;;15.70;8.77;;;;;;;-0.44;95.60;99537.13;5037280;28;20021;-85
2024/01/18 05:48:01;;;;;;;14.90;9.20;;;;;;;-0.53;95.12;99527.31;5020852;28;20385;-85
2024/01/18 05:50:29;;;;;;;19.27;9.73;;;;;;;-0.41;95.29;99552.78;5020765;28;20116;-86
2024/01/18 05:52:54;;;;;;;15.30;8.80;;;;;;;-0.39;95.47;99550.25;5054967;28;20477;-86
2024/01/18 05:55:19;;;;;;;18.55;9.52;;;;;;;-0.40;94.34;99553.69;5055263;28;20033;-85
2024/01/18 05:57:45;;;;;;;17.65;9.82;;;;;;;-0.57;94.49;99540.13;5054699;28;20545;-85
2024/01/18 06:00:11;;;;;;;22.90;9.65;;;;;;;-0.61;94.95;99541.72;5037236;28;20025;-85
2024/01/18 06:02:36;;;;;;;18.83;10.07;;;;;;;-0.48;94.96;99571.56;5020616;28;20052;-85
2024/01/18 06:05:02;;;;;;;20.90;10.48;;;;;;;-0.48;94.27;99581.06;5020602;28;20346;-85
2024/01/18 06:07:27;;;;;;;16.05;9.68;;;;;;;-0.68;94.17;99551.88;5004197;28;20029;-85
2024/01/18 06:09:53;;;;;;;18.83;9.90;;;;;;;-0.71;94.31;99565.59;5020587;28;20033;-86
2024/01/18 06:12:20;;;;;;;15.25;9.18;;;;;;;-0.82;94.30;99556.56;5004041;28;20538;-86
2024/01/18 06:14:45;;;;;;;14.57;8.38;;;;;;;-0.76;93.99;99583.59;5020624;28;20524;-85
2024/01/18 06:17:10;;;;;;;17.77;9.18;;;;;;;-0.90;95.07;99566.69;5054409;28;20128;-85
2024/01/18 06:19:36;;;;;;;19.83;9.57;;;;;;;-0.72;95.34;99600.16;5054912;28;20060;-86
2024/01/18 06:22:01;;;;;;;18.48;8.93;;;;;;;-0.70;94.88;99611.44;5054568;28;20032;-85
2024/01/18 06:24:28;;;;;;;15.60;8.32;;;;;;;-0.74;95.02;99621.66;5020279;28;20033;-85
2024/01/18 06:26:54;;;;;;;15.55;8.57;;;;;;;-0.72;94.71;99618.31;5036867;28;20029;-86
2024/01/18 06:29:26;;;;;;;15.43;8.73;;;;;;;-0.89;93.67;99594.38;5019414;28;20035;-86
2024/01/18 06:31:51;;;;;;;18.80;9.75;;;;;;;-0.85;93.26;99616.09;5037737;28;20454;-85
2024/01/18 06:34:17;;;;;;;17.15;9.32;;;;;;;-1.02;93.32;99624.16;5036697;28;20043;-85
2024/01/18 06:36:43;;;;;;;15.70;8.73;;;;;;;-1.14;93.66;99628.00;5020037;28;20251;-85
2024/01/18 06:39:08;;;;;;;15.15;8.70;;;;;;;-1.43;94.42;99601.84;5020018;28;20426;-86
2024/01/18 06:41:34;;;;;;;14.48;9.07;;;;;;;-1.28;94.78;99636.13;5019942;28;20454;-85
2024/01/18 06:43:59;;;;;;;17.35;7.85;;;;;;;-1.26;95.02;99639.66;5036308;28;20033;-85
2024/01/18 06:46:24;;;;;;;16.58;8.35;;;;;;;-1.47;94.60;99602.56;5019821;28;20043;-85
2024/01/18 06:48:53;;;;;;;14.38;8.65;;;;;;;-1.24;94.62;99644.91;5054077;28;20064;-85
2024/01/18 06:51:22;;;;;;;17.38;8.68;;;;;;;-1.45;94.45;99618.19;5020318;28;20060;-85
2024/01/18 06:53:47;;;;;;;15.35;8.50;;;;;;;-1.32;94.41;99647.19;5019720;28;20060;-86
2024/01/18 06:56:16;;;;;;;15.55;8.35;;;;;;;-1.27;94.52;99662.91;5036864;28;20417;-85
2024/01/18 06:58:43;;;;;;;13.75;8.05;;;;;;;-1.35;94.38;99648.78;5056901;28;20029;-85
2024/01/18 07:01:10;;;;;;;15.57;8.00;;;;;;;-1.29;93.79;99661.97;5038153;28;20484;-84
2024/01/18 07:03:36;;;;;;;14.25;8.52;;;;;;;-1.31;93.37;99667.09;5053680;28;20025;-84
2024/01/18 07:06:08;;;;;;;15.45;8.65;;;;;;;-1.46;93.17;99652.66;5054052;28;20032;-85
2024/01/18 07:08:34;;;;;;;14.63;8.18;;;;;;;-1.45;93.63;99676.03;5036388;28;20485;-85
2024/01/18 07:11:01;;;;;;;15.38;7.97;;;;;;;-1.60;94.22;99649.53;5053533;28;20462;-85
2024/01/18 07:13:26;;;;;;;16.83;8.45;;;;;;;-1.45;94.55;99673.47;5036041;28;20182;-84
2024/01/18 07:15:52;;;;;;;16.05;8.07;;;;;;;-1.45;94.35;99673.47;5053797;28;20063;-84
2024/01/18 07:18:18;;;;;;;15.15;8.07;;;;;;;-1.44;93.08;99682.09;5035725;28;20458;-84
2024/01/18 07:20:43;;;;;;;14.10;8.05;;;;;;;-1.45;94.24;99685.53;5035670;28;20090;-84
2024/01/18 07:23:08;;;;;;;12.90;8.27;;;;;;;-1.57;93.42;99673.84;5035715;28;20386;-84
2024/01/18 07:25:34;;;;;;;17.33;7.93;;;;;;;-1.73;94.04;99663.69;5036023;28;20484;-85
2024/01/18 07:27:59;;;;;;;16.90;7.80;;;;;;;-1.61;94.91;99684.03;5053464;28;20116;-84
2024/01/18 07:30:25;;;;;;;18.20;7.82;;;;;;;-1.75;94.77;99656.69;5053493;28;20112;-85
2024/01/18 07:32:50;;;;;;;15.32;7.78;;;;;;;-1.46;94.77;99705.34;5035323;28;20442;-85
2024/01/18 07:35:16;;;;;;;14.52;8.27;;;;;;;-1.44;94.47;99705.44;5053002;28;20036;-85
2024/01/18 07:37:41;;;;;;;17.02;8.48;;;;;;;-1.58;94.32;99679.84;5035013;28;20037;-85
2024/01/18 07:40:07;;;;;;;17.25;7.80;;;;;;;-1.77;93.54;99649.72;5052714;28;20055;-84
2024/01/18 07:42:33;;;;;;;15.02;7.97;;;;;;;-1.56;93.87;99693.75;5018183;28;20090;-85
2024/01/18 07:44:58;;;;;;;14.43;7.93;;;;;;;-1.47;94.09;99710.47;5035819;28;20072;-84
2024/01/18 07:47:24;;;;;;;16.60;8.05;;;;;;;-1.41;93.77;99719.38;5034984;28;20056;-86
2024/01/18 07:49:50;;;;;;;15.68;8.05;;;;;;;-1.41;93.74;99719.38;5034577;28;20071;-85
2024/01/18 07:52:16;;;;;;;14.32;8.40;;;;;;;-1.54;93.61;99712.84;5035098;28;20489;-86
2024/01/18 07:54:42;;;;;;;15.13;8.68;;;;;;;-1.54;93.27;99728.38;5031293;28;20632;-86
2024/01/18 07:57:08;;;;;;;12.25;7.95;;;;;;;-1.70;94.02;99702.66;5032675;28;20053;-86
2024/01/18 07:59:34;;;;;;;17.92;8.52;;;;;;;-1.57;94.08;99732.53;5014903;28;20520;-86
2024/01/18 08:02:00;;;;;;;14.05;8.15;;;;;;;-1.46;94.43;99754.56;5031544;28;20063;-86
2024/01/18 08:04:25;;;;;;;13.95;8.57;;;;;;;-1.40;94.44;99754.84;5032699;28;20466;-85
2024/01/18 08:06:52;;;;;;;15.80;8.63;;;;;;;-1.26;95.62;99768.34;5032984;28;20029;-86
2024/01/18 08:09:17;;;;;;;21.38;10.13;;;;;;;-1.06;95.65;99771.75;5033167;28;20040;-87
2024/01/18 08:11:43;;;;;;;17.88;10.13;;;;;;;-0.94;96.11;99759.25;5034574;28;20029;-89
2024/01/18 08:14:08;;;;;;;17.35;10.20;;;;;;;-0.69;95.23;99762.78;5016199;28;20485;-88
2024/01/18 08:16:34;;;;;;;17.05;10.02;;;;;;;-0.47;94.72;99767.97;5034299;28;20044;-88
2024/01/18 08:18:59;;;;;;;19.75;10.93;;;;;;;-0.24;95.64;99760.13;5032638;28;20056;-87
2024/01/18 08:21:24;;;;;;;18.23;9.95;;;;;;;0.10;94.79;99770.91;5032197;28;20033;-88
2024/01/18 08:23:50;;;;;;;15.93;9.68;;;;;;;0.38;95.05;99777.03;5033894;28;20033;-88
2024/01/18 08:26:16;;;;;;;17.17;10.43;;;;;;;0.64;94.92;99771.00;5015508;28;20095;-88
2024/01/18 08:28:41;;;;;;;15.77;9.25;;;;;;;0.87;92.47;99779.56;5033241;28;20113;-88
2024/01/18 08:31:08;;;;;;;16.08;9.52;;;;;;;1.09;92.44;99781.09;5032855;28;20057;-88
2024/01/18 08:33:33;;;;;;;15.05;9.27;;;;;;;1.40;93.09;99795.06;5015011;28;20382;-87
2024/01/18 08:35:59;;;;;;;19.08;9.60;;;;;;;1.62;89.87;99796.59;5032359;28;20048;-88
2024/01/18 08:38:24;;;;;;;13.05;8.80;;;;;;;1.89;90.71;99797.41;5032652;28;20037;-90
2024/01/18 08:40:50;;;;;;;14.57;8.48;;;;;;;2.08;88.44;99793.56;5031748;28;20382;-89
2024/01/18 08:43:15;;;;;;;14.63;9.25;;;;;;;2.18;88.42;99781.66;5030933;28;20134;-87
2024/01/18 08:45:41;;;;;;;17.63;9.23;;;;;;;2.27;87.51;99774.13;5032451;28;20038;-88
2024/01/18 08:48:07;;;;;;;14.95;9.27;;;;;;;2.68;87.57;99805.59;5032325;28;20160;-91
2024/01/18 08:50:32;;;;;;;17.02;9.10;;;;;;;2.81;86.18;99805.06;5037013;28;20030;-91
2024/01/18 08:52:58;;;;;;;20.13;9.65;;;;;;;2.98;85.02;99811.56;5033895;28;20037;-89
2024/01/18 08:55:23;;;;;;;15.98;9.63;;;;;;;3.18;84.90;99814.66;5004672;28;20140;-89
2024/01/18 08:57:52;;;;;;;14.68;9.27;;;;;;;3.39;84.25;99818.63;5034210;28;20025;-86
2024/01/18 09:00:18;;;;;;;15.48;9.32;;;;;;;3.64;84.07;99814.81;5018347;28;20033;-85
2024/01/18 09:02:44;;;;;;;14.73;9.27;;;;;;;3.79;82.48;99801.22;5018414;28;20453;-91
2024/01/18 09:05:10;;;;;;;16.48;9.25;;;;;;;4.07;81.47;99823.56;5014202;28;20090;-89
2024/01/18 09:07:36;;;;;;;20.92;9.63;;;;;;;4.22;81.40;99795.13;5003200;28;20041;-87
2024/01/18 09:10:02;;;;;;;15.20;8.63;;;;;;;4.77;79.50;99840.63;5035495;28;20065;-86
2024/01/18 09:12:28;;;;;;;13.93;7.63;;;;;;;5.03;78.96;99843.69;5038297;28;20037;-88
2024/01/18 09:14:54;;;;;;;14.07;7.95;;;;;;;5.17;78.29;99851.75;5025496;28;20040;-88
2024/01/18 09:17:20;;;;;;;15.20;8.35;;;;;;;5.29;76.82;99854.59;5008880;28;20035;-87
2024/01/18 09:19:46;;;;;;;22.20;7.95;;;;;;;5.45;76.17;99856.59;5017471;28;20438;-87
2024/01/18 09:22:11;;;;;;;14.05;8.10;;;;;;;5.74;76.27;99872.75;5017511;28;20044;-86
2024/01/18 09:24:36;;;;;;;11.55;7.47;;;;;;;5.77;76.12;99830.84;5000832;28;20033;-86
2024/01/18 09:27:02;;;;;;;13.35;6.93;;;;;;;6.01;74.41;99860.91;5017293;28;20040;-86
2024/01/18 09:29:27;;;;;;;13.27;7.75;;;;;;;6.10;74.05;99865.41;5018264;28;20038;-86
2024/01/18 09:31:53;;;;;;;14.40;7.88;;;;;;;6.22;73.89;99865.56;5017245;28;20072;-86
2024/01/18 09:34:19;;;;;;;15.35;7.63;;;;;;;6.42;73.40;99866.66;5035670;28;20060;-85
2024/01/18 09:36:44;;;;;;;15.68;7.60;;;;;;;6.72;74.26;99892.41;5034864;28;20462;-85
2024/01/18 09:39:15;;;;;;;13.23;7.20;;;;;;;6.87;71.07;99889.03;5000903;28;20064;-85
2024/01/18 09:41:42;;;;;;;14.57;6.80;;;;;;;7.35;70.52;99910.50;5017393;28;20488;-86
2024/01/18 09:44:13;;;;;;;11.85;7.28;;;;;;;7.65;70.12;99904.59;5034785;28;20470;-85
2024/01/18 09:46:40;;;;;;;12.82;6.80;;;;;;;7.98;68.52;99917.13;5035006;28;20452;-85
2024/01/18 09:49:09;;;;;;;10.90;6.20;;;;;;;8.17;67.12;99908.44;5034787;28;20461;-85
2024/01/18 09:51:34;;;;;;;12.85;6.45;;;;;;;8.23;66.91;99883.94;5016758;28;20037;-85
2024/01/18 09:54:00;;;;;;;11.40;6.30;;;;;;;8.42;65.50;99901.56;5018863;28;20500;-85
2024/01/18 09:56:28;;;;;;;10.07;5.85;;;;;;;8.78;65.88;99928.94;5034976;28;20045;-85
2024/01/18 09:58:54;;;;;;;12.00;6.25;;;;;;;8.94;64.56;99932.47;5033384;28;20493;-85
2024/01/18 10:01:21;;;;;;;12.52;6.57;;;;;;;9.20;64.93;99949.22;5034815;28;20029;-85
2024/01/18 10:03:48;;;;;;;10.27;5.80;;;;;;;9.42;63.61;99949.25;5032544;28;20029;-86
2024/01/18 10:06:15;;;;;;;11.25;6.43;;;;;;;9.60;63.00;99949.28;5033068;28;20469;-90
2024/01/18 10:08:41;;;;;;;15.05;6.07;;;;;;;9.67;62.29;99926.41;5034892;28;20048;-93
2024/01/18 10:11:06;;;;;;;10.43;5.75;;;;;;;9.96;61.33;99965.97;5034779;28;20033;-87
2024/01/18 10:13:51;;;;;;;10.07;6.00;;;;;;;9.87;62.77;99966.84;4999814;28;20053;-92
2024/01/18 10:16:30;;;;;;;10.40;5.63;;;;;;;9.97;62.84;99965.97;5033123;28;20473;-88
2024/01/18 10:19:01;;;;;;;9.25;5.63;;;;;;;9.95;61.29;99978.28;5016747;28;20036;-88
2024/01/18 10:21:27;;;;;;;11.68;5.88;;;;;;;10.08;60.62;99963.31;5020898;28;20064;-89
2024/01/18 10:23:54;;;;;;;10.32;6.00;;;;;;;10.32;59.61;99994.13;5032983;28;20075;-86
2024/01/18 10:26:27;;;;;;;9.80;5.63;;;;;;;10.49;58.98;99987.03;5033202;28;20037;-89
2024/01/18 10:28:52;;;;;;;9.63;4.85;;;;;;;10.27;57.06;99988.81;5034771;28;20029;-87
2024/01/18 10:31:17;;;;;;;11.30;5.00;;;;;;;10.33;57.91;99998.53;5033024;28;20036;-87
2024/01/18 10:33:45;;;;;;;9.13;4.35;;;;;;;10.34;57.21;99995.00;5033168;28;20578;-89
2024/01/18 10:36:10;;;;;;;8.45;4.82;;;;;;;10.32;57.20;99995.84;5034441;28;20037;-88
2024/01/18 10:38:38;;;;;;;11.57;4.80;;;;;;;10.39;57.03;100006.41;5033117;28;20025;-94
2024/01/18 10:41:19;;;;;;;12.13;5.40;;;;;;;10.75;60.02;100010.72;5033162;28;20037;-93
2024/01/18 10:43:44;;;;;;;9.02;4.60;;;;;;;10.96;56.67;99993.91;5033411;28;20033;-92
2024/01/18 10:46:10;;;;;;;8.05;4.80;;;;;;;11.34;56.18;100003.38;5035609;28;20038;-96
2024/01/18 10:48:43;;;;;;;8.00;4.53;;;;;;;11.37;55.00;99998.09;5033192;28;20183;-89
2024/01/18 10:51:09;;;;;;;10.63;4.60;;;;;;;11.40;54.15;100013.94;5016899;28;20076;-86
2024/01/18 10:53:37;;;;;;;8.05;4.22;;;;;;;11.62;55.38;100012.03;5033934;28;20088;-88
2024/01/18 10:56:02;;;;;;;11.43;4.25;;;;;;;11.57;53.42;99994.44;5016303;28;20114;-86
2024/01/18 10:58:30;;;;;;;6.82;4.00;;;;;;;11.39;53.15;99976.91;5015986;28;20119;-86
2024/01/18 11:00:57;;;;;;;7.53;4.32;;;;;;;11.25;53.58;99988.44;5033869;28;20060;-86
2024/01/18 11:03:23;;;;;;;10.88;4.35;;;;;;;11.43;54.38;100027.13;5015888;28;20052;-85
2024/01/18 11:05:49;;;;;;;6.47;3.80;;;;;;;11.40;53.52;100021.00;5015891;28;20037;-85
2024/01/18 11:08:17;;;;;;;7.70;3.88;;;;;;;11.23;53.78;100013.16;5016081;28;20168;-86
2024/01/18 11:10:44;;;;;;;8.20;4.28;;;;;;;11.26;53.55;100018.41;5016588;28;20090;-84
2024/01/18 11:13:11;;;;;;;12.10;4.63;;;;;;;11.25;53.28;100033.41;5016511;28;20029;-86
2024/01/18 11:15:40;;;;;;;9.07;3.80;;;;;;;11.37;53.54;100037.75;5033076;28;20034;-90
2024/01/18 11:18:12;;;;;;;7.88;3.83;;;;;;;11.20;53.58;100021.09;5016234;28;20029;-86
2024/01/18 11:20:57;;;;;;;;;;;;;;;11.31;59.42;100035.16;5033617;28;20364;-85